Time;durP1;ratioP1;P1;durP2;ratioP2;P2;SDS_P1;SDS_P2;PMS_P1;PMS_P2;Temp;Humidity;BMP_temperature;BMP_pressure;BME280_temperature;BME280_humidity;BME280_pressure;Samples;Min_cycle;Max_cycle;Signal;HPM_P1;HPM_P2
2023/12/28 00:00:03;;;;;;;4.90;2.80;;;;;;;8.75;97.39;100806.00;4994953;28;20026;-87
2023/12/28 00:02:28;;;;;;;5.03;2.70;;;;;;;8.75;97.14;100808.56;4996460;28;20037;-87
2023/12/28 00:04:54;;;;;;;3.50;2.70;;;;;;;8.73;97.82;100817.19;4995145;28;20026;-86
2023/12/28 00:07:19;;;;;;;3.90;2.40;;;;;;;8.70;97.91;100823.28;4996197;28;20076;-86
2023/12/28 00:09:45;;;;;;;3.73;2.60;;;;;;;8.69;98.24;100816.38;4995812;28;20032;-86
2023/12/28 00:12:10;;;;;;;5.47;2.80;;;;;;;8.65;99.59;100796.59;4995233;28;20825;-87
2023/12/28 00:14:35;;;;;;;3.60;2.53;;;;;;;8.68;98.62;100816.41;4995224;28;20027;-86
2023/12/28 00:17:01;;;;;;;5.03;2.83;;;;;;;8.70;98.96;100819.84;4995288;28;20030;-87
2023/12/28 00:19:26;;;;;;;5.20;2.73;;;;;;;8.62;99.93;100812.13;4994718;28;20026;-87
2023/12/28 00:21:51;;;;;;;4.80;3.00;;;;;;;8.68;99.97;100822.41;4995563;28;20137;-87
2023/12/28 00:24:23;;;;;;;5.23;2.97;;;;;;;8.66;100.00;100826.75;4995487;28;20019;-87
2023/12/28 00:26:48;;;;;;;4.97;2.60;;;;;;;8.63;100.00;100830.22;5004267;23;20143;-84
2023/12/28 00:29:13;;;;;;;3.47;2.57;;;;;;;8.63;100.00;100839.72;4975823;28;20460;-86
2023/12/28 00:31:39;;;;;;;3.30;2.60;;;;;;;8.59;100.00;100835.41;4976311;28;20042;-86
2023/12/28 00:34:04;;;;;;;5.63;2.90;;;;;;;8.56;100.00;100838.03;4975599;28;20023;-87
2023/12/28 00:36:29;;;;;;;5.93;2.90;;;;;;;8.58;100.00;100841.47;4975504;28;20361;-86
2023/12/28 00:38:55;;;;;;;4.23;2.87;;;;;;;8.57;100.00;100839.75;4978004;28;20031;-86
2023/12/28 00:41:20;;;;;;;3.47;2.70;;;;;;;8.56;100.00;100843.19;4982767;28;20029;-87
2023/12/28 00:43:45;;;;;;;4.83;2.57;;;;;;;8.55;100.00;100844.94;4981894;28;20065;-86
2023/12/28 00:46:11;;;;;;;3.80;2.80;;;;;;;8.58;100.00;100839.75;4982973;28;20166;-86
2023/12/28 00:48:37;;;;;;;5.43;3.13;;;;;;;8.56;100.00;100843.19;4975479;28;20034;-86
2023/12/28 00:51:02;;;;;;;3.83;2.77;;;;;;;8.57;100.00;100850.09;4976059;28;20025;-86
2023/12/28 00:53:27;;;;;;;5.37;2.77;;;;;;;8.56;100.00;100850.97;4975973;28;20412;-86
2023/12/28 00:55:53;;;;;;;5.33;2.90;;;;;;;8.55;100.00;100862.19;4975120;28;20031;-86
2023/12/28 00:58:21;;;;;;;3.43;2.80;;;;;;;8.54;100.00;100861.31;4975515;28;20055;-86
2023/12/28 01:00:46;;;;;;;4.43;2.80;;;;;;;8.56;100.00;100874.25;4975681;28;20076;-86
2023/12/28 01:03:13;;;;;;;3.63;2.80;;;;;;;8.56;100.00;100871.66;4974274;28;20042;-87
2023/12/28 01:05:43;;;;;;;3.90;2.80;;;;;;;8.56;100.00;100866.47;4975153;28;20030;-86
2023/12/28 01:08:09;;;;;;;5.63;2.90;;;;;;;8.54;100.00;100876.84;4975521;28;20026;-87
2023/12/28 01:10:34;;;;;;;5.97;3.07;;;;;;;8.71;100.00;100870.72;4974610;28;20030;-87
2023/12/28 01:12:59;;;;;;;5.05;3.05;;;;;;;8.59;100.00;100876.81;4975522;28;20027;-87
2023/12/28 01:15:24;;;;;;;4.80;2.83;;;;;;;8.58;100.00;100878.56;4974800;28;20019;-87
2023/12/28 01:17:50;;;;;;;3.87;2.90;;;;;;;8.59;100.00;100880.28;4975246;28;20019;-87
2023/12/28 01:20:15;;;;;;;4.90;3.10;;;;;;;8.63;100.00;100883.69;4975305;28;20026;-87
2023/12/28 01:22:40;;;;;;;4.20;2.70;;;;;;;8.64;100.00;100890.59;4955669;28;20027;-87
2023/12/28 01:25:12;;;;;;;6.03;3.10;;;;;;;8.65;100.00;100887.16;4956119;29;20115;-87
2023/12/28 01:27:37;;;;;;;5.63;3.00;;;;;;;8.64;100.00;100886.25;4955261;29;20094;-87
2023/12/28 01:30:05;;;;;;;5.40;3.17;;;;;;;8.68;100.00;100900.03;4955408;29;20019;-87
2023/12/28 01:32:31;;;;;;;3.97;2.60;;;;;;;8.69;100.00;100890.56;4974819;28;20049;-87
2023/12/28 01:34:56;;;;;;;3.97;2.80;;;;;;;8.68;100.00;100891.44;4975232;28;20475;-88
2023/12/28 01:37:24;;;;;;;4.40;2.70;;;;;;;8.65;100.00;100893.16;4974323;28;20122;-86
2023/12/28 01:39:49;;;;;;;5.00;2.80;;;;;;;8.62;100.00;100888.00;4974975;28;20027;-86
2023/12/28 01:42:15;;;;;;;4.73;2.80;;;;;;;8.63;100.00;100897.47;4974551;28;20061;-87
2023/12/28 01:44:40;;;;;;;4.72;2.80;;;;;;;8.61;100.00;100904.38;4974132;28;20027;-85
2023/12/28 01:47:09;;;;;;;4.20;2.60;;;;;;;8.57;100.00;100896.66;4975550;28;20027;-87
2023/12/28 01:49:35;;;;;;;3.47;2.40;;;;;;;8.57;100.00;100907.88;4974315;28;20038;-87
2023/12/28 01:52:02;;;;;;;4.43;2.58;;;;;;;8.56;100.00;100913.03;4974048;28;20034;-87
2023/12/28 01:54:28;;;;;;;5.00;2.80;;;;;;;8.55;100.00;100906.19;4974895;28;20090;-87
2023/12/28 01:56:54;;;;;;;3.38;2.42;;;;;;;8.54;100.00;100907.03;4975005;28;20027;-87
2023/12/28 01:59:19;;;;;;;4.33;2.67;;;;;;;8.53;100.00;100913.09;4973862;28;20361;-87
2023/12/28 02:01:45;;;;;;;4.57;2.73;;;;;;;8.52;100.00;100912.22;4974717;28;20050;-87
2023/12/28 02:04:11;;;;;;;5.00;2.90;;;;;;;8.48;100.00;100902.75;4974983;28;20019;-87
2023/12/28 02:06:39;;;;;;;4.77;2.90;;;;;;;8.48;100.00;100905.34;4974431;28;20290;-87
2023/12/28 02:09:05;;;;;;;6.20;2.90;;;;;;;8.48;100.00;100900.19;4975227;28;20070;-87
2023/12/28 02:11:30;;;;;;;3.50;2.60;;;;;;;8.49;100.00;100902.75;4974695;28;20058;-87
2023/12/28 02:13:56;;;;;;;5.67;2.60;;;;;;;8.46;100.00;100910.47;4975762;28;20386;-87
2023/12/28 02:16:36;;;;;;;3.63;2.60;;;;;;;8.48;100.00;100905.34;4977672;28;20045;-87
2023/12/28 02:19:17;;;;;;;4.95;2.80;;;;;;;8.44;100.00;100912.25;4977800;28;20031;-87
2023/12/28 02:21:43;;;;;;;4.38;2.67;;;;;;;8.41;100.00;100899.31;4978186;28;20027;-85
2023/12/28 02:24:08;;;;;;;5.13;2.60;;;;;;;8.42;100.00;100907.91;4978477;28;20361;-85
2023/12/28 02:26:34;;;;;;;3.40;2.50;;;;;;;8.41;100.00;100906.19;4986534;28;20531;-85
2023/12/28 02:29:02;;;;;;;5.27;2.70;;;;;;;8.40;100.00;100904.47;4997676;28;20030;-84
2023/12/28 02:31:34;;;;;;;3.65;2.70;;;;;;;8.42;100.00;100901.03;4997669;28;20101;-85
2023/12/28 02:34:27;;;;;;;3.17;2.40;;;;;;;8.38;100.00;100891.56;4996253;28;20065;-86
2023/12/28 02:36:56;;;;;;;4.00;2.47;;;;;;;8.43;100.00;100897.59;4997656;28;20026;-86
2023/12/28 02:39:22;;;;;;;4.82;2.60;;;;;;;8.40;100.00;100889.84;4997632;28;20022;-86
2023/12/28 02:41:48;;;;;;;5.05;2.67;;;;;;;8.43;100.00;100901.88;4996697;28;20109;-87
2023/12/28 02:44:13;;;;;;;3.80;2.50;;;;;;;8.40;100.00;100895.00;4997015;28;20526;-87
2023/12/28 02:46:44;;;;;;;4.73;2.67;;;;;;;8.45;100.00;100890.66;4996817;28;20049;-86
2023/12/28 02:49:11;;;;;;;4.82;2.70;;;;;;;8.44;100.00;100901.91;4997815;28;20029;-86
2023/12/28 02:51:37;;;;;;;4.97;2.40;;;;;;;8.45;100.00;100887.22;4997062;28;20042;-87
2023/12/28 02:54:02;;;;;;;4.13;2.80;;;;;;;8.44;100.00;100893.25;4996381;28;20029;-87
2023/12/28 02:56:32;;;;;;;4.93;2.87;;;;;;;8.50;100.00;100888.94;4996818;28;20036;-87
2023/12/28 02:58:57;;;;;;;4.05;2.75;;;;;;;8.49;100.00;100897.56;4997209;28;20484;-87
2023/12/28 03:01:23;;;;;;;3.80;2.37;;;;;;;8.46;100.00;100887.19;4996500;28;20093;-86
2023/12/28 03:03:48;;;;;;;4.73;2.40;;;;;;;8.48;100.00;100882.91;4997253;28;20033;-86
2023/12/28 03:06:13;;;;;;;4.93;2.40;;;;;;;8.49;100.00;100870.88;4997596;28;20053;-86
2023/12/28 03:08:39;;;;;;;4.73;2.67;;;;;;;8.47;100.00;100862.22;4996058;28;20118;-87
2023/12/28 03:11:04;;;;;;;7.17;2.60;;;;;;;8.55;100.00;100869.97;4996785;28;20030;-87
2023/12/28 03:13:29;;;;;;;4.10;2.37;;;;;;;8.52;100.00;100872.56;4997336;28;20470;-87
2023/12/28 03:15:55;;;;;;;6.43;2.30;;;;;;;8.56;100.00;100864.78;4996500;28;20034;-88
2023/12/28 03:18:20;;;;;;;5.20;2.50;;;;;;;8.50;100.00;100870.84;4997697;28;20463;-87
2023/12/28 03:20:46;;;;;;;4.57;2.50;;;;;;;8.57;100.00;100875.97;4996733;28;20495;-86
2023/12/28 03:23:12;;;;;;;3.93;2.37;;;;;;;8.52;100.00;100872.56;4996453;28;20018;-87
2023/12/28 03:25:40;;;;;;;4.70;2.47;;;;;;;8.55;100.00;100878.56;4995779;28;20097;-85
2023/12/28 03:28:05;;;;;;;6.53;2.60;;;;;;;8.59;100.00;100879.41;4996576;28;20108;-85
2023/12/28 03:30:34;;;;;;;4.47;2.47;;;;;;;8.57;100.00;100896.66;4996468;28;20062;-85
2023/12/28 03:32:59;;;;;;;4.45;2.50;;;;;;;8.63;100.00;100904.41;4996719;28;20491;-85
2023/12/28 03:35:24;;;;;;;5.73;2.40;;;;;;;8.67;100.00;100906.06;4996669;28;20116;-85
2023/12/28 03:37:50;;;;;;;4.57;2.50;;;;;;;8.73;100.00;100905.19;4995850;28;20088;-86
2023/12/28 03:40:15;;;;;;;5.00;2.30;;;;;;;8.72;100.00;100901.75;4996502;28;20128;-86
2023/12/28 03:42:40;;;;;;;5.80;2.50;;;;;;;8.77;100.00;100905.19;5000747;28;20395;-87
2023/12/28 03:45:06;;;;;;;7.93;2.90;;;;;;;8.81;100.00;100901.69;4999752;28;20023;-86
2023/12/28 03:47:32;;;;;;;5.00;2.50;;;;;;;8.80;100.00;100904.28;5001605;28;20030;-86
2023/12/28 03:49:57;;;;;;;7.63;2.70;;;;;;;8.89;100.00;100891.28;5002191;28;20034;-87
2023/12/28 03:52:26;;;;;;;6.57;2.73;;;;;;;8.86;100.00;100875.75;4996079;28;20038;-86
2023/12/28 03:54:51;;;;;;;5.00;2.30;;;;;;;8.89;100.00;100882.66;4996036;28;20034;-85
2023/12/28 03:57:16;;;;;;;4.30;2.40;;;;;;;8.91;100.00;100881.78;4995701;28;20029;-86
2023/12/28 03:59:41;;;;;;;8.33;2.73;;;;;;;8.98;100.00;100889.47;4995857;28;20050;-86
2023/12/28 04:04:39;;;;;;;4.45;2.33;;;;;;;8.92;100.00;100882.63;4974504;28;20047;-87
2023/12/28 04:07:07;;;;;;;5.95;2.45;;;;;;;8.95;100.00;100885.19;4976933;28;20109;-86
2023/12/28 04:09:33;;;;;;;5.03;2.40;;;;;;;8.95;100.00;100895.53;4980140;28;20074;-87
2023/12/28 04:11:58;;;;;;;5.40;2.50;;;;;;;8.95;100.00;100893.81;4995634;28;20070;-87
2023/12/28 04:14:23;;;;;;;6.87;2.10;;;;;;;8.97;100.00;100888.63;4995967;28;20519;-86
2023/12/28 04:16:49;;;;;;;11.17;2.73;;;;;;;8.92;100.00;100875.72;4996020;28;20030;-87
2023/12/28 04:19:14;;;;;;;6.73;2.30;;;;;;;8.98;100.00;100903.28;4995411;28;20022;-86
2023/12/28 04:21:43;;;;;;;7.20;2.40;;;;;;;8.94;100.00;100891.22;4996067;28;20161;-87
2023/12/28 04:24:08;;;;;;;4.90;2.33;;;;;;;9.00;100.00;100895.50;4988854;28;20031;-88
2023/12/28 04:26:34;;;;;;;5.90;2.43;;;;;;;8.98;100.00;100887.75;4975360;28;20015;-86
2023/12/28 04:28:59;;;;;;;6.77;2.77;;;;;;;9.01;100.00;100876.50;4976394;28;20027;-87
2023/12/28 04:31:27;;;;;;;4.30;2.20;;;;;;;9.02;100.00;100883.41;4976034;28;20034;-87
2023/12/28 04:33:53;;;;;;;5.07;2.30;;;;;;;9.00;100.00;100867.91;4990408;28;20030;-87
2023/12/28 04:36:18;;;;;;;8.97;2.67;;;;;;;9.11;100.00;100871.25;4995379;28;20030;-87
2023/12/28 04:38:43;;;;;;;7.63;2.53;;;;;;;9.12;100.00;100896.25;4995495;28;20022;-87
2023/12/28 04:41:09;;;;;;;9.47;2.30;;;;;;;9.10;100.00;100884.19;4985809;28;20455;-88
2023/12/28 04:43:35;;;;;;;7.57;2.38;;;;;;;9.10;100.00;100897.16;4975818;28;20015;-87
2023/12/28 04:46:04;;;;;;;4.23;2.20;;;;;;;9.09;100.00;100898.00;4976429;28;20030;-89
2023/12/28 04:48:30;;;;;;;5.78;2.30;;;;;;;9.08;99.86;100904.94;4975863;28;20026;-86
2023/12/28 04:50:55;;;;;;;10.00;2.50;;;;;;;9.11;100.00;100896.28;4994863;28;20103;-86
2023/12/28 04:53:20;;;;;;;8.10;2.30;;;;;;;8.99;100.00;100886.91;4994820;28;20050;-89
2023/12/28 04:55:45;;;;;;;7.30;2.40;;;;;;;9.03;99.94;100898.91;4989452;28;20027;-88
2023/12/28 04:58:14;;;;;;;3.70;2.20;;;;;;;9.04;100.00;100889.44;4975501;28;20084;-89
2023/12/28 05:00:39;;;;;;;8.38;2.47;;;;;;;9.04;98.56;100895.47;4975310;28;20065;-87
2023/12/28 05:03:06;;;;;;;8.20;2.30;;;;;;;9.09;98.76;100911.84;4968723;28;20493;-87
2023/12/28 05:05:31;;;;;;;6.47;2.38;;;;;;;9.14;98.40;100911.78;4956293;29;20031;-87
2023/12/28 05:07:59;;;;;;;6.60;2.20;;;;;;;9.14;98.64;100914.38;4955498;29;20027;-87
2023/12/28 05:10:24;;;;;;;7.32;2.28;;;;;;;9.16;98.52;100923.00;4956229;29;20051;-87
2023/12/28 05:12:50;;;;;;;6.20;2.33;;;;;;;9.28;97.77;100922.03;4955739;29;20056;-88
2023/12/28 05:15:15;;;;;;;9.63;2.30;;;;;;;9.25;97.55;100922.03;4955483;29;20039;-88
2023/12/28 05:17:41;;;;;;;7.53;2.20;;;;;;;9.32;97.39;100920.25;4956005;29;20045;-88
2023/12/28 05:20:09;;;;;;;8.83;2.70;;;;;;;9.30;97.79;100919.41;4956087;29;20038;-87
2023/12/28 05:22:37;;;;;;;6.03;1.98;;;;;;;9.26;97.92;100903.06;4954806;29;20046;-88
2023/12/28 05:25:03;;;;;;;7.57;2.20;;;;;;;9.23;96.95;100909.13;4955865;29;20083;-87
2023/12/28 05:27:28;;;;;;;10.80;3.00;;;;;;;9.30;96.54;100909.94;4955970;29;20031;-87
2023/12/28 05:29:53;;;;;;;6.90;2.60;;;;;;;9.22;96.13;100909.16;4954989;29;20085;-87
2023/12/28 05:32:19;;;;;;;7.70;1.90;;;;;;;9.20;96.87;100918.66;4955857;29;20039;-87
2023/12/28 05:34:44;;;;;;;6.67;2.23;;;;;;;9.12;96.48;100910.94;4955718;29;20031;-87
2023/12/28 05:37:10;;;;;;;7.53;2.23;;;;;;;9.09;96.79;100917.00;4955216;29;20038;-87
2023/12/28 05:39:35;;;;;;;9.47;2.17;;;;;;;9.04;97.14;100913.59;4955895;29;20028;-87
2023/12/28 05:42:00;;;;;;;6.63;2.03;;;;;;;9.00;96.60;100906.75;4956192;29;20027;-86
2023/12/28 05:44:26;;;;;;;5.93;2.13;;;;;;;8.99;97.72;100912.78;4954643;29;20523;-86
2023/12/28 05:46:52;;;;;;;7.97;2.20;;;;;;;9.06;97.52;100922.22;4955206;29;20035;-87
2023/12/28 05:49:17;;;;;;;4.05;1.85;;;;;;;8.98;97.51;100926.59;4959560;28;20019;-87
2023/12/28 05:51:43;;;;;;;5.20;1.90;;;;;;;9.00;97.44;100922.28;4961291;28;20035;-86
2023/12/28 05:54:11;;;;;;;3.73;2.10;;;;;;;9.04;96.94;100931.72;4961861;29;20098;-87
2023/12/28 05:56:36;;;;;;;6.90;2.13;;;;;;;9.00;96.94;100922.28;4960906;28;20176;-87
2023/12/28 05:59:10;;;;;;;5.77;1.83;;;;;;;9.05;97.26;100928.25;4962334;29;20472;-87
2023/12/28 06:01:43;;;;;;;7.93;2.08;;;;;;;9.05;97.05;100930.00;4961760;29;20099;-87
2023/12/28 06:04:08;;;;;;;9.82;2.17;;;;;;;9.10;96.83;100931.69;4976350;28;20039;-87
2023/12/28 06:06:34;;;;;;;9.03;2.30;;;;;;;9.14;95.62;100934.22;4980980;28;20030;-86
2023/12/28 06:08:59;;;;;;;9.73;2.27;;;;;;;9.16;96.04;100948.03;4981551;28;20030;-87
2023/12/28 06:11:25;;;;;;;8.77;2.20;;;;;;;9.21;95.96;100947.13;4980946;28;20496;-87
2023/12/28 06:13:50;;;;;;;7.93;2.20;;;;;;;9.22;96.30;100951.44;4981178;28;20480;-85
2023/12/28 06:16:15;;;;;;;10.20;2.40;;;;;;;9.21;95.73;100934.16;4979944;28;20034;-86
2023/12/28 06:18:40;;;;;;;9.60;2.30;;;;;;;9.23;96.51;100935.03;4979469;28;20379;-87
2023/12/28 06:21:08;;;;;;;9.67;2.10;;;;;;;9.19;96.10;100940.25;4981071;28;20054;-85
2023/12/28 06:23:33;;;;;;;7.70;2.08;;;;;;;9.25;96.58;100948.81;4982567;28;20548;-86
2023/12/28 06:26:22;;;;;;;8.43;2.20;;;;;;;9.28;96.20;100947.94;4984038;28;20054;-89
2023/12/28 06:28:47;;;;;;;9.30;2.45;;;;;;;9.26;95.68;100937.59;4984796;28;20081;-86
2023/12/28 06:31:12;;;;;;;9.23;2.33;;;;;;;9.25;95.42;100941.06;4985588;28;20026;-86
2023/12/28 06:33:38;;;;;;;9.23;2.27;;;;;;;9.27;95.96;100947.09;4980685;28;20105;-86
2023/12/28 06:36:07;;;;;;;9.67;2.20;;;;;;;9.25;96.18;100948.81;4981528;28;20498;-86
2023/12/28 06:38:33;;;;;;;9.95;2.20;;;;;;;9.24;96.10;100951.41;4981266;28;20033;-86
2023/12/28 06:40:58;;;;;;;14.60;2.27;;;;;;;9.22;95.44;100950.59;4980531;28;20027;-86
2023/12/28 06:43:23;;;;;;;8.70;2.50;;;;;;;9.24;96.01;100946.22;4981043;28;20038;-86
2023/12/28 06:45:48;;;;;;;9.00;2.50;;;;;;;9.23;95.75;100955.75;4979886;28;20031;-85
2023/12/28 06:48:14;;;;;;;12.67;2.47;;;;;;;9.20;95.52;100954.91;4980673;28;20530;-86
2023/12/28 06:50:39;;;;;;;11.63;2.60;;;;;;;9.18;95.26;100954.91;4980180;28;20022;-86
2023/12/28 06:53:07;;;;;;;10.13;2.37;;;;;;;9.10;95.30;100948.94;4980190;28;20778;-85
2023/12/28 06:55:34;;;;;;;6.65;2.10;;;;;;;9.08;95.56;100948.94;4980449;28;20030;-85
2023/12/28 06:57:59;;;;;;;9.15;2.50;;;;;;;9.11;95.28;100961.00;4980923;28;20042;-87
2023/12/28 07:00:33;;;;;;;14.80;2.53;;;;;;;9.09;95.32;100948.09;4978999;28;20379;-86
2023/12/28 07:02:58;;;;;;;6.80;2.00;;;;;;;9.06;94.95;100953.28;4984201;28;20064;-86
2023/12/28 07:05:29;;;;;;;7.80;2.23;;;;;;;9.08;95.18;100958.44;4997227;28;20535;-86
2023/12/28 07:07:54;;;;;;;6.57;1.98;;;;;;;9.06;95.00;100958.44;4988101;28;20050;-86
2023/12/28 07:10:20;;;;;;;7.87;2.00;;;;;;;9.04;95.12;100949.00;4977594;28;20113;-86
2023/12/28 07:12:45;;;;;;;9.57;2.40;;;;;;;9.03;95.37;100961.06;4980705;28;20046;-85
2023/12/28 07:15:14;;;;;;;8.87;2.30;;;;;;;9.02;95.42;100967.09;4976122;28;20051;-86
2023/12/28 07:17:39;;;;;;;9.95;2.10;;;;;;;8.94;96.05;100969.75;4977256;28;20031;-86
2023/12/28 07:20:05;;;;;;;6.97;2.03;;;;;;;8.94;96.14;100974.94;4977909;28;20365;-88
2023/12/28 07:22:30;;;;;;;10.23;2.43;;;;;;;8.99;95.63;100982.69;4977281;28;20035;-87
2023/12/28 07:24:56;;;;;;;8.97;2.00;;;;;;;8.97;96.10;100984.41;4985367;28;20081;-87
2023/12/28 07:27:21;;;;;;;8.07;2.23;;;;;;;8.92;95.78;100975.81;4997318;28;20019;-90
2023/12/28 07:29:52;;;;;;;7.13;2.20;;;;;;;8.99;96.19;100995.63;4996520;28;20027;-87
2023/12/28 07:32:19;;;;;;;7.80;2.13;;;;;;;8.93;96.44;100986.16;4996497;28;20089;-88
2023/12/28 07:34:45;;;;;;;10.07;2.30;;;;;;;8.96;96.64;100998.22;4994460;28;20026;-88
2023/12/28 07:37:13;;;;;;;9.03;2.10;;;;;;;8.98;97.07;100991.31;4976962;28;20029;-86
2023/12/28 07:39:38;;;;;;;9.15;2.10;;;;;;;9.00;96.02;100999.94;4976699;28;20027;-87
2023/12/28 07:42:04;;;;;;;12.23;2.73;;;;;;;9.00;96.55;100997.34;4971922;28;20038;-86
2023/12/28 07:44:29;;;;;;;8.30;2.10;;;;;;;9.00;96.83;100997.34;4976525;28;20484;-91
2023/12/28 07:46:55;;;;;;;8.53;2.30;;;;;;;8.96;96.96;101008.56;4976211;28;20109;-85
2023/12/28 07:49:20;;;;;;;10.73;2.40;;;;;;;8.98;96.57;101018.91;4975541;28;20023;-83
2023/12/28 07:51:45;;;;;;;8.27;2.30;;;;;;;8.97;97.01;101015.47;4976518;28;20062;-86
2023/12/28 07:54:10;;;;;;;8.20;2.23;;;;;;;8.99;96.94;101023.22;4976903;28;20069;-86
2023/12/28 07:56:40;;;;;;;6.20;2.23;;;;;;;8.99;97.60;101018.91;4975617;28;20488;-86
2023/12/28 07:59:06;;;;;;;9.15;2.22;;;;;;;8.99;97.54;101018.91;4982602;28;20026;-87
2023/12/28 08:01:33;;;;;;;9.63;2.40;;;;;;;8.97;97.31;101012.88;4978207;28;20065;-86
2023/12/28 08:03:58;;;;;;;;;;;;;;;9.05;97.63;101028.38;4962033;28;20039;-85
2023/12/28 08:06:23;;;;;;;11.77;2.50;;;;;;;9.02;97.55;101028.38;4957039;29;19915;-86
2023/12/28 08:08:48;;;;;;;9.87;2.30;;;;;;;9.02;97.84;101039.59;4956191;29;20496;-86
2023/12/28 08:11:14;;;;;;;12.27;2.60;;;;;;;9.06;97.25;101051.66;4955547;28;20028;-87
2023/12/28 08:13:42;;;;;;;11.53;2.43;;;;;;;9.07;97.44;101042.16;4956682;29;20037;-86
2023/12/28 08:16:07;;;;;;;9.23;2.40;;;;;;;9.08;97.87;101049.94;4956237;29;20477;-86
2023/12/28 08:18:32;;;;;;;8.77;2.30;;;;;;;9.11;96.66;101055.09;4956329;29;20059;-87
2023/12/28 08:21:00;;;;;;;9.57;2.17;;;;;;;9.10;97.85;101031.78;4957106;29;20383;-86
2023/12/28 08:23:25;;;;;;;4.72;1.70;;;;;;;9.09;97.68;101036.13;4957016;29;20029;-86
2023/12/28 08:25:51;;;;;;;6.60;1.80;;;;;;;9.10;97.99;101034.38;4955746;29;20105;-87
2023/12/28 08:28:16;;;;;;;9.83;2.17;;;;;;;9.11;97.77;101020.56;4955983;29;20046;-87
2023/12/28 08:30:42;;;;;;;6.83;2.27;;;;;;;9.10;97.46;101030.06;4956217;29;20019;-87
2023/12/28 08:33:07;;;;;;;8.77;2.10;;;;;;;9.17;97.56;101032.59;4955926;29;20031;-87
2023/12/28 08:35:32;;;;;;;13.13;2.17;;;;;;;9.18;97.38;101034.34;4956413;29;20078;-86
2023/12/28 08:38:00;;;;;;;11.23;2.17;;;;;;;9.28;96.39;101030.81;4956695;29;20031;-88
2023/12/28 08:40:26;;;;;;;10.77;2.55;;;;;;;9.22;96.80;101043.81;4956177;29;20484;-87
2023/12/28 08:42:54;;;;;;;9.30;2.27;;;;;;;9.22;97.01;101041.22;4956160;29;20039;-86
2023/12/28 08:45:19;;;;;;;9.25;2.10;;;;;;;9.22;97.18;101033.44;4956407;29;20031;-86
2023/12/28 08:47:48;;;;;;;9.52;2.35;;;;;;;9.23;97.54;101037.75;4956042;29;20078;-86
2023/12/28 08:50:14;;;;;;;9.53;2.33;;;;;;;9.22;97.34;101047.25;4956529;29;20031;-87
2023/12/28 08:52:39;;;;;;;8.97;2.30;;;;;;;9.20;97.25;101053.31;4954817;29;20542;-86
2023/12/28 08:55:08;;;;;;;7.90;2.00;;;;;;;9.19;97.32;101051.59;4956524;29;20031;-86
2023/12/28 08:57:33;;;;;;;7.05;1.70;;;;;;;9.24;97.30;101049.81;4955856;29;20027;-87
2023/12/28 09:00:00;;;;;;;5.60;1.90;;;;;;;9.22;97.59;101056.75;4955542;29;20031;-86
2023/12/28 09:02:28;;;;;;;8.50;2.08;;;;;;;9.26;97.73;101069.69;4960477;28;20082;-85
2023/12/28 09:04:53;;;;;;;3.50;1.73;;;;;;;9.28;97.25;101077.44;4980646;28;20039;-85
2023/12/28 09:07:19;;;;;;;11.70;2.17;;;;;;;9.27;96.50;101092.13;4980058;28;20073;-87
2023/12/28 09:09:44;;;;;;;7.77;2.07;;;;;;;9.29;97.30;101079.16;4978256;28;20034;-86
2023/12/28 09:12:10;;;;;;;9.53;2.40;;;;;;;9.29;96.87;101084.31;4974846;28;20306;-86
2023/12/28 09:14:41;;;;;;;10.33;2.13;;;;;;;9.32;96.28;101086.91;4974842;28;20093;-86
2023/12/28 09:17:06;;;;;;;11.75;2.25;;;;;;;9.40;95.99;101084.28;4975365;28;20027;-86
2023/12/28 09:19:32;;;;;;;8.50;2.17;;;;;;;9.37;96.32;101079.94;4974738;28;20019;-85
2023/12/28 09:21:57;;;;;;;9.70;2.50;;;;;;;9.36;95.85;101090.34;4975692;28;20030;-85
2023/12/28 09:24:23;;;;;;;9.70;2.30;;;;;;;9.38;96.65;101091.19;4974278;28;20487;-85
2023/12/28 09:26:48;;;;;;;8.10;2.40;;;;;;;9.44;95.27;101088.53;4979264;28;20145;-85
2023/12/28 09:29:13;;;;;;;12.80;2.30;;;;;;;9.45;96.09;101094.59;4992330;28;20069;-85
2023/12/28 09:31:39;;;;;;;10.10;2.00;;;;;;;9.41;95.12;101091.16;4994213;28;20117;-85
2023/12/28 09:34:04;;;;;;;5.17;1.80;;;;;;;9.43;96.49;101097.19;4994649;28;20100;-85
2023/12/28 09:36:30;;;;;;;5.87;1.87;;;;;;;9.43;96.11;101099.78;4993613;28;20718;-85
2023/12/28 09:38:56;;;;;;;8.67;2.03;;;;;;;9.42;95.16;101101.53;4993541;28;20113;-83
2023/12/28 09:41:26;;;;;;;11.10;2.30;;;;;;;9.44;95.57;101104.09;4990172;28;20023;-85
2023/12/28 09:44:05;;;;;;;6.85;2.00;;;;;;;9.43;96.31;101113.59;4988200;28;20026;-86
2023/12/28 09:46:31;;;;;;;10.32;2.30;;;;;;;9.55;95.19;101111.81;4993578;28;20073;-86
2023/12/28 09:48:57;;;;;;;8.15;1.95;;;;;;;9.43;95.61;101102.38;4984691;28;20015;-84
2023/12/28 09:51:23;;;;;;;10.95;2.53;;;;;;;9.43;95.23;101108.44;4955226;28;20042;-86
2023/12/28 09:53:51;;;;;;;9.87;2.30;;;;;;;9.47;94.56;101136.88;4954498;28;20027;-86
2023/12/28 09:56:16;;;;;;;9.32;1.90;;;;;;;9.46;95.29;101130.00;4954319;28;20058;-85
2023/12/28 09:58:44;;;;;;;5.13;2.00;;;;;;;9.56;96.06;101122.16;4983532;28;20124;-86
2023/12/28 10:01:10;;;;;;;8.18;2.63;;;;;;;9.50;95.35;101134.28;4993683;28;20053;-85
2023/12/28 10:03:35;;;;;;;10.37;2.10;;;;;;;9.52;95.37;101123.03;4992560;28;20042;-84
2023/12/28 10:06:01;;;;;;;7.37;1.90;;;;;;;9.48;95.08;101123.94;4993372;28;20018;-86
2023/12/28 10:08:26;;;;;;;9.63;2.17;;;;;;;9.48;94.91;101129.13;4992884;28;20035;-85
2023/12/28 10:10:54;;;;;;;11.43;2.43;;;;;;;9.47;94.42;101124.81;4992770;28;20022;-87
2023/12/28 10:13:23;;;;;;;11.00;2.38;;;;;;;9.50;95.12;101129.97;4958102;28;20047;-86
2023/12/28 10:15:51;;;;;;;9.48;2.10;;;;;;;9.52;94.43;101120.44;4973719;28;20119;-86
2023/12/28 10:18:19;;;;;;;9.93;2.10;;;;;;;9.62;94.14;101129.03;4973230;28;20050;-86
2023/12/28 10:20:49;;;;;;;10.80;2.30;;;;;;;9.64;93.67;101121.22;4973592;28;20077;-86
2023/12/28 10:23:14;;;;;;;10.32;2.30;;;;;;;9.87;93.66;101128.84;4973467;28;20118;-85
2023/12/28 10:25:40;;;;;;;13.40;2.50;;;;;;;9.69;93.29;101135.88;4971394;28;20109;-86
2023/12/28 10:28:08;;;;;;;12.00;2.43;;;;;;;9.75;93.36;101137.56;4972857;28;20027;-86
2023/12/28 10:30:33;;;;;;;7.20;2.17;;;;;;;9.76;93.24;101125.47;4975423;28;20031;-86
2023/12/28 10:32:58;;;;;;;9.70;1.90;;;;;;;9.78;93.14;101131.53;4972212;28;20631;-86
2023/12/28 10:35:27;;;;;;;10.00;2.23;;;;;;;9.80;92.15;101128.03;4974715;28;20034;-85
2023/12/28 10:37:53;;;;;;;9.95;2.50;;;;;;;9.79;92.25;101128.06;4976313;28;20039;-89
2023/12/28 10:40:21;;;;;;;16.20;2.92;;;;;;;9.80;92.56;101115.06;4977548;28;20031;-86
2023/12/28 10:43:03;;;;;;;6.30;2.30;;;;;;;9.81;92.14;101121.09;4977260;28;20038;-85
2023/12/28 10:45:31;;;;;;;12.80;2.72;;;;;;;9.86;91.14;101096.03;4977047;28;20027;-86
2023/12/28 10:48:08;;;;;;;10.63;2.45;;;;;;;9.89;91.22;101102.03;5094625;23;20411;-89
2023/12/28 10:50:40;;;;;;;9.35;2.50;;;;;;;9.87;90.74;101108.09;4976696;28;20031;-86
2023/12/28 10:53:43;;;;;;;12.65;2.50;;;;;;;9.98;91.29;101108.00;4973771;28;20023;-85
2023/12/28 10:56:14;;;;;;;7.63;2.42;;;;;;;9.94;92.31;101108.94;4977221;28;20035;-85
2023/12/28 10:58:50;;;;;;;11.48;2.85;;;;;;;10.03;91.56;101107.09;4977086;28;20113;-85
2023/12/28 11:01:31;;;;;;;14.17;2.57;;;;;;;10.02;91.37;101107.97;4976542;28;20033;-86
2023/12/28 11:04:09;;;;;;;7.85;2.05;;;;;;;10.05;91.93;101107.09;4977171;28;20314;-85
2023/12/28 11:06:36;;;;;;;12.15;2.28;;;;;;;10.06;92.15;101106.22;4976377;28;20365;-86
2023/12/28 11:09:05;;;;;;;11.05;2.65;;;;;;;10.07;89.75;101100.16;4977511;28;20026;-85
2023/12/28 11:11:32;;;;;;;14.23;2.47;;;;;;;10.02;89.69;101076.84;4977437;28;20027;-85
2023/12/28 11:14:00;;;;;;;10.13;2.13;;;;;;;10.12;90.59;101092.34;4976586;28;20364;-85
2023/12/28 11:16:31;;;;;;;10.40;2.20;;;;;;;10.15;90.21;101098.34;4976667;28;20046;-84
2023/12/28 11:18:58;;;;;;;11.95;2.60;;;;;;;10.14;89.79;101090.56;4976603;28;20051;-85
2023/12/28 11:21:27;;;;;;;11.40;2.58;;;;;;;10.19;90.73;101086.22;4976484;28;20086;-84
2023/12/28 11:23:53;;;;;;;12.90;2.58;;;;;;;10.19;89.18;101094.00;4976449;28;20427;-85
2023/12/28 11:26:21;;;;;;;7.32;2.20;;;;;;;10.19;90.31;101091.41;4976915;28;20074;-85
2023/12/28 11:28:47;;;;;;;8.77;2.20;;;;;;;10.16;90.57;101094.88;4975806;28;20031;-86